sensor_id;sensor_type;location;lat;lon;timestamp;P1;durP1;ratioP1;P2;durP2;ratioP2
11797;SDS011;5956;51.428;6.682;2023-04-24T00:00:50;0.90;;;0.90;;
11797;SDS011;5956;51.428;6.682;2023-04-24T00:03:17;3.40;;;1.10;;
11797;SDS011;5956;51.428;6.682;2023-04-24T00:05:46;3.30;;;1.50;;
11797;SDS011;5956;51.428;6.682;2023-04-24T00:08:14;1.43;;;1.10;;
11797;SDS011;5956;51.428;6.682;2023-04-24T00:10:40;1.77;;;1.47;;
11797;SDS011;5956;51.428;6.682;2023-04-24T00:13:07;3.37;;;1.33;;
11797;SDS011;5956;51.428;6.682;2023-04-24T00:15:33;2.83;;;1.57;;
11797;SDS011;5956;51.428;6.682;2023-04-24T00:18:00;1.60;;;1.50;;
11797;SDS011;5956;51.428;6.682;2023-04-24T00:20:27;1.73;;;1.50;;
11797;SDS011;5956;51.428;6.682;2023-04-24T00:22:54;2.67;;;1.47;;
11797;SDS011;5956;51.428;6.682;2023-04-24T00:25:22;1.93;;;1.60;;
11797;SDS011;5956;51.428;6.682;2023-04-24T00:27:48;2.20;;;1.50;;
11797;SDS011;5956;51.428;6.682;2023-04-24T00:30:15;1.80;;;1.70;;
11797;SDS011;5956;51.428;6.682;2023-04-24T00:32:41;1.83;;;1.70;;
11797;SDS011;5956;51.428;6.682;2023-04-24T00:35:08;2.53;;;2.10;;
11797;SDS011;5956;51.428;6.682;2023-04-24T00:37:35;3.50;;;2.20;;
11797;SDS011;5956;51.428;6.682;2023-04-24T00:40:02;3.03;;;2.27;;
11797;SDS011;5956;51.428;6.682;2023-04-24T00:42:30;2.90;;;2.57;;
11797;SDS011;5956;51.428;6.682;2023-04-24T00:44:56;2.67;;;2.47;;
11797;SDS011;5956;51.428;6.682;2023-04-24T00:47:23;4.03;;;2.67;;
11797;SDS011;5956;51.428;6.682;2023-04-24T00:49:50;4.03;;;3.10;;
11797;SDS011;5956;51.428;6.682;2023-04-24T00:52:16;3.43;;;3.13;;
11797;SDS011;5956;51.428;6.682;2023-04-24T00:54:43;4.57;;;3.37;;
11797;SDS011;5956;51.428;6.682;2023-04-24T00:57:10;3.10;;;2.90;;
11797;SDS011;5956;51.428;6.682;2023-04-24T00:59:38;3.87;;;3.17;;
11797;SDS011;5956;51.428;6.682;2023-04-24T01:02:06;4.10;;;3.43;;
11797;SDS011;5956;51.428;6.682;2023-04-24T01:04:33;4.47;;;4.17;;
11797;SDS011;5956;51.428;6.682;2023-04-24T01:07:00;3.73;;;3.50;;
11797;SDS011;5956;51.428;6.682;2023-04-24T01:09:27;4.20;;;3.60;;
11797;SDS011;5956;51.428;6.682;2023-04-24T01:11:53;3.70;;;3.40;;
11797;SDS011;5956;51.428;6.682;2023-04-24T01:14:20;4.30;;;3.60;;
11797;SDS011;5956;51.428;6.682;2023-04-24T01:16:48;4.50;;;4.03;;
11797;SDS011;5956;51.428;6.682;2023-04-24T01:19:14;4.60;;;4.20;;
11797;SDS011;5956;51.428;6.682;2023-04-24T01:21:41;4.87;;;4.47;;
11797;SDS011;5956;51.428;6.682;2023-04-24T01:24:09;5.60;;;5.07;;
11797;SDS011;5956;51.428;6.682;2023-04-24T01:26:36;4.90;;;4.33;;
11797;SDS011;5956;51.428;6.682;2023-04-24T01:29:02;4.70;;;4.30;;
11797;SDS011;5956;51.428;6.682;2023-04-24T01:31:29;5.27;;;4.80;;
11797;SDS011;5956;51.428;6.682;2023-04-24T01:33:56;6.53;;;4.80;;
11797;SDS011;5956;51.428;6.682;2023-04-24T01:36:22;5.33;;;4.83;;
11797;SDS011;5956;51.428;6.682;2023-04-24T01:38:51;6.27;;;5.10;;
11797;SDS011;5956;51.428;6.682;2023-04-24T01:41:19;5.87;;;5.37;;
11797;SDS011;5956;51.428;6.682;2023-04-24T01:43:45;6.60;;;4.77;;
11797;SDS011;5956;51.428;6.682;2023-04-24T01:46:12;5.20;;;4.70;;
11797;SDS011;5956;51.428;6.682;2023-04-24T01:48:38;5.47;;;5.03;;
11797;SDS011;5956;51.428;6.682;2023-04-24T01:51:05;5.73;;;5.33;;
11797;SDS011;5956;51.428;6.682;2023-04-24T01:53:31;5.00;;;4.57;;
11797;SDS011;5956;51.428;6.682;2023-04-24T01:55:58;5.30;;;4.80;;
11797;SDS011;5956;51.428;6.682;2023-04-24T01:58:26;9.87;;;5.00;;
11797;SDS011;5956;51.428;6.682;2023-04-24T02:00:53;5.70;;;5.00;;
11797;SDS011;5956;51.428;6.682;2023-04-24T02:03:19;5.63;;;5.13;;
11797;SDS011;5956;51.428;6.682;2023-04-24T02:05:45;6.93;;;5.13;;
11797;SDS011;5956;51.428;6.682;2023-04-24T02:08:12;7.10;;;5.57;;
11797;SDS011;5956;51.428;6.682;2023-04-24T02:10:38;7.60;;;5.30;;
11797;SDS011;5956;51.428;6.682;2023-04-24T02:13:05;8.20;;;6.97;;
11797;SDS011;5956;51.428;6.682;2023-04-24T02:15:33;7.57;;;6.83;;
11797;SDS011;5956;51.428;6.682;2023-04-24T02:18:01;9.43;;;7.43;;
11797;SDS011;5956;51.428;6.682;2023-04-24T02:20:27;7.87;;;7.17;;
11797;SDS011;5956;51.428;6.682;2023-04-24T02:22:54;7.47;;;6.77;;
11797;SDS011;5956;51.428;6.682;2023-04-24T02:25:20;7.60;;;6.90;;
11797;SDS011;5956;51.428;6.682;2023-04-24T02:27:47;11.13;;;8.33;;
11797;SDS011;5956;51.428;6.682;2023-04-24T02:30:13;10.33;;;7.73;;
11797;SDS011;5956;51.428;6.682;2023-04-24T02:32:41;9.30;;;8.43;;
11797;SDS011;5956;51.428;6.682;2023-04-24T02:35:08;10.13;;;8.73;;
11797;SDS011;5956;51.428;6.682;2023-04-24T02:37:34;11.63;;;9.00;;
11797;SDS011;5956;51.428;6.682;2023-04-24T02:40:01;9.80;;;8.83;;
11797;SDS011;5956;51.428;6.682;2023-04-24T02:42:28;10.50;;;9.33;;
11797;SDS011;5956;51.428;6.682;2023-04-24T02:44:54;10.47;;;8.67;;
11797;SDS011;5956;51.428;6.682;2023-04-24T02:47:20;10.43;;;9.40;;
11797;SDS011;5956;51.428;6.682;2023-04-24T02:49:48;12.47;;;10.47;;
11797;SDS011;5956;51.428;6.682;2023-04-24T02:52:15;11.80;;;9.83;;
11797;SDS011;5956;51.428;6.682;2023-04-24T02:54:41;11.00;;;9.90;;
11797;SDS011;5956;51.428;6.682;2023-04-24T02:57:08;11.77;;;10.57;;
11797;SDS011;5956;51.428;6.682;2023-04-24T02:59:34;13.30;;;10.33;;
11797;SDS011;5956;51.428;6.682;2023-04-24T03:02:01;11.23;;;10.03;;
11797;SDS011;5956;51.428;6.682;2023-04-24T03:04:27;13.07;;;10.27;;
11797;SDS011;5956;51.428;6.682;2023-04-24T03:06:55;13.30;;;10.17;;
11797;SDS011;5956;51.428;6.682;2023-04-24T03:09:22;12.93;;;10.63;;
11797;SDS011;5956;51.428;6.682;2023-04-24T03:11:48;11.60;;;10.50;;
11797;SDS011;5956;51.428;6.682;2023-04-24T03:14:15;15.90;;;11.60;;
11797;SDS011;5956;51.428;6.682;2023-04-24T03:16:41;18.50;;;11.07;;
11797;SDS011;5956;51.428;6.682;2023-04-24T03:19:07;11.97;;;10.73;;
11797;SDS011;5956;51.428;6.682;2023-04-24T03:21:34;14.10;;;11.30;;
11797;SDS011;5956;51.428;6.682;2023-04-24T03:24:07;12.70;;;10.83;;
11797;SDS011;5956;51.428;6.682;2023-04-24T03:26:33;15.90;;;10.77;;
11797;SDS011;5956;51.428;6.682;2023-04-24T03:29:00;13.20;;;10.97;;
11797;SDS011;5956;51.428;6.682;2023-04-24T03:31:26;14.87;;;11.20;;
11797;SDS011;5956;51.428;6.682;2023-04-24T03:33:53;12.90;;;11.03;;
11797;SDS011;5956;51.428;6.682;2023-04-24T03:36:20;16.57;;;11.07;;
11797;SDS011;5956;51.428;6.682;2023-04-24T03:38:47;13.30;;;11.03;;
11797;SDS011;5956;51.428;6.682;2023-04-24T03:41:15;11.77;;;10.23;;
11797;SDS011;5956;51.428;6.682;2023-04-24T03:43:41;14.03;;;10.70;;
11797;SDS011;5956;51.428;6.682;2023-04-24T03:46:07;12.10;;;10.27;;
11797;SDS011;5956;51.428;6.682;2023-04-24T03:48:34;12.60;;;10.40;;
11797;SDS011;5956;51.428;6.682;2023-04-24T03:51:01;14.40;;;10.40;;
11797;SDS011;5956;51.428;6.682;2023-04-24T03:53:27;15.20;;;10.47;;
11797;SDS011;5956;51.428;6.682;2023-04-24T03:55:54;14.73;;;10.63;;
11797;SDS011;5956;51.428;6.682;2023-04-24T03:58:22;12.57;;;10.90;;
11797;SDS011;5956;51.428;6.682;2023-04-24T04:00:48;12.20;;;10.37;;
11797;SDS011;5956;51.428;6.682;2023-04-24T04:03:15;12.63;;;9.97;;
11797;SDS011;5956;51.428;6.682;2023-04-24T04:05:41;11.50;;;10.30;;
11797;SDS011;5956;51.428;6.682;2023-04-24T04:08:08;14.20;;;10.47;;
11797;SDS011;5956;51.428;6.682;2023-04-24T04:10:34;12.00;;;10.80;;
11797;SDS011;5956;51.428;6.682;2023-04-24T04:13:01;11.30;;;10.20;;
11797;SDS011;5956;51.428;6.682;2023-04-24T04:15:29;11.33;;;10.23;;
11797;SDS011;5956;51.428;6.682;2023-04-24T04:17:55;12.57;;;9.77;;
11797;SDS011;5956;51.428;6.682;2023-04-24T04:20:22;11.17;;;10.07;;
11797;SDS011;5956;51.428;6.682;2023-04-24T04:22:48;11.47;;;9.83;;
11797;SDS011;5956;51.428;6.682;2023-04-24T04:25:15;13.57;;;10.57;;
11797;SDS011;5956;51.428;6.682;2023-04-24T04:27:44;11.53;;;10.33;;
11797;SDS011;5956;51.428;6.682;2023-04-24T04:30:13;10.83;;;9.50;;
11797;SDS011;5956;51.428;6.682;2023-04-24T04:32:41;9.43;;;8.60;;
11797;SDS011;5956;51.428;6.682;2023-04-24T04:35:07;10.87;;;9.73;;
11797;SDS011;5956;51.428;6.682;2023-04-24T04:37:34;13.13;;;9.87;;
11797;SDS011;5956;51.428;6.682;2023-04-24T04:40:01;11.73;;;9.67;;
11797;SDS011;5956;51.428;6.682;2023-04-24T04:42:31;10.30;;;8.80;;
11797;SDS011;5956;51.428;6.682;2023-04-24T04:44:57;9.83;;;8.57;;
11797;SDS011;5956;51.428;6.682;2023-04-24T04:47:24;11.90;;;9.03;;
11797;SDS011;5956;51.428;6.682;2023-04-24T04:49:52;9.67;;;8.63;;
11797;SDS011;5956;51.428;6.682;2023-04-24T04:52:19;8.47;;;7.60;;
11797;SDS011;5956;51.428;6.682;2023-04-24T04:54:50;8.27;;;7.57;;
11797;SDS011;5956;51.428;6.682;2023-04-24T04:57:16;9.20;;;7.97;;
11797;SDS011;5956;51.428;6.682;2023-04-24T04:59:42;11.60;;;7.97;;
11797;SDS011;5956;51.428;6.682;2023-04-24T05:02:09;8.33;;;7.50;;
11797;SDS011;5956;51.428;6.682;2023-04-24T05:04:36;8.70;;;7.80;;
11797;SDS011;5956;51.428;6.682;2023-04-24T05:07:04;8.70;;;7.87;;
11797;SDS011;5956;51.428;6.682;2023-04-24T05:09:31;8.63;;;7.90;;
11797;SDS011;5956;51.428;6.682;2023-04-24T05:11:57;10.53;;;8.40;;
11797;SDS011;5956;51.428;6.682;2023-04-24T05:14:24;9.23;;;7.93;;
11797;SDS011;5956;51.428;6.682;2023-04-24T05:16:50;10.17;;;9.10;;
11797;SDS011;5956;51.428;6.682;2023-04-24T05:19:17;13.43;;;8.70;;
11797;SDS011;5956;51.428;6.682;2023-04-24T05:21:44;10.20;;;9.20;;
11797;SDS011;5956;51.428;6.682;2023-04-24T05:24:11;9.83;;;8.93;;
11797;SDS011;5956;51.428;6.682;2023-04-24T05:26:38;10.17;;;9.10;;
11797;SDS011;5956;51.428;6.682;2023-04-24T05:29:04;9.93;;;9.03;;
11797;SDS011;5956;51.428;6.682;2023-04-24T05:31:31;10.13;;;9.13;;
11797;SDS011;5956;51.428;6.682;2023-04-24T05:33:57;10.23;;;9.23;;
11797;SDS011;5956;51.428;6.682;2023-04-24T05:36:24;10.27;;;9.20;;
11797;SDS011;5956;51.428;6.682;2023-04-24T05:38:52;10.10;;;9.10;;
11797;SDS011;5956;51.428;6.682;2023-04-24T05:41:20;10.03;;;8.87;;
11797;SDS011;5956;51.428;6.682;2023-04-24T05:43:47;9.63;;;8.73;;
11797;SDS011;5956;51.428;6.682;2023-04-24T05:46:14;10.37;;;9.43;;
11797;SDS011;5956;51.428;6.682;2023-04-24T05:48:40;9.83;;;8.93;;
11797;SDS011;5956;51.428;6.682;2023-04-24T05:51:07;9.50;;;8.63;;
11797;SDS011;5956;51.428;6.682;2023-04-24T05:53:33;10.27;;;9.27;;
11797;SDS011;5956;51.428;6.682;2023-04-24T05:56:00;9.53;;;8.73;;
11797;SDS011;5956;51.428;6.682;2023-04-24T05:58:28;11.47;;;10.47;;
11797;SDS011;5956;51.428;6.682;2023-04-24T06:00:54;10.00;;;8.87;;
11797;SDS011;5956;51.428;6.682;2023-04-24T06:03:22;10.20;;;9.27;;
11797;SDS011;5956;51.428;6.682;2023-04-24T06:05:49;10.00;;;9.10;;
11797;SDS011;5956;51.428;6.682;2023-04-24T06:08:16;10.53;;;9.43;;
11797;SDS011;5956;51.428;6.682;2023-04-24T06:10:42;10.00;;;9.13;;
11797;SDS011;5956;51.428;6.682;2023-04-24T06:13:09;10.27;;;9.00;;
11797;SDS011;5956;51.428;6.682;2023-04-24T06:15:37;10.70;;;9.30;;
11797;SDS011;5956;51.428;6.682;2023-04-24T06:18:04;10.00;;;9.03;;
11797;SDS011;5956;51.428;6.682;2023-04-24T06:20:31;8.93;;;8.03;;
11797;SDS011;5956;51.428;6.682;2023-04-24T06:22:57;9.77;;;8.23;;
11797;SDS011;5956;51.428;6.682;2023-04-24T06:25:24;8.23;;;7.50;;
11797;SDS011;5956;51.428;6.682;2023-04-24T06:27:51;9.03;;;8.23;;
11797;SDS011;5956;51.428;6.682;2023-04-24T06:30:17;8.37;;;7.47;;
11797;SDS011;5956;51.428;6.682;2023-04-24T06:32:45;8.37;;;7.30;;
11797;SDS011;5956;51.428;6.682;2023-04-24T06:35:12;7.70;;;7.10;;
11797;SDS011;5956;51.428;6.682;2023-04-24T06:37:38;7.07;;;6.37;;
11797;SDS011;5956;51.428;6.682;2023-04-24T06:40:05;7.10;;;6.47;;
11797;SDS011;5956;51.428;6.682;2023-04-24T06:42:32;6.97;;;6.30;;
11797;SDS011;5956;51.428;6.682;2023-04-24T06:45:00;6.97;;;6.07;;
11797;SDS011;5956;51.428;6.682;2023-04-24T06:47:26;6.47;;;5.97;;
11797;SDS011;5956;51.428;6.682;2023-04-24T06:49:54;5.83;;;5.33;;
11797;SDS011;5956;51.428;6.682;2023-04-24T06:52:20;5.30;;;4.90;;
11797;SDS011;5956;51.428;6.682;2023-04-24T06:54:47;4.93;;;4.53;;
11797;SDS011;5956;51.428;6.682;2023-04-24T06:57:14;7.00;;;6.30;;
11797;SDS011;5956;51.428;6.682;2023-04-24T06:59:41;6.97;;;6.37;;
11797;SDS011;5956;51.428;6.682;2023-04-24T07:02:07;5.73;;;5.03;;
11797;SDS011;5956;51.428;6.682;2023-04-24T07:04:34;5.20;;;4.30;;
11797;SDS011;5956;51.428;6.682;2023-04-24T07:07:02;3.37;;;3.17;;
11797;SDS011;5956;51.428;6.682;2023-04-24T07:09:29;3.00;;;2.80;;
11797;SDS011;5956;51.428;6.682;2023-04-24T07:11:56;2.70;;;2.50;;
11797;SDS011;5956;51.428;6.682;2023-04-24T07:14:23;2.83;;;2.63;;
11797;SDS011;5956;51.428;6.682;2023-04-24T07:16:49;2.17;;;1.97;;
11797;SDS011;5956;51.428;6.682;2023-04-24T07:19:16;2.00;;;1.90;;
11797;SDS011;5956;51.428;6.682;2023-04-24T07:21:42;2.27;;;1.90;;
11797;SDS011;5956;51.428;6.682;2023-04-24T07:24:11;2.00;;;1.60;;
11797;SDS011;5956;51.428;6.682;2023-04-24T07:26:38;1.90;;;1.80;;
11797;SDS011;5956;51.428;6.682;2023-04-24T07:29:05;2.33;;;2.13;;
11797;SDS011;5956;51.428;6.682;2023-04-24T07:31:31;1.70;;;1.60;;
11797;SDS011;5956;51.428;6.682;2023-04-24T07:33:58;1.20;;;1.20;;
11797;SDS011;5956;51.428;6.682;2023-04-24T07:36:24;1.97;;;1.50;;
11797;SDS011;5956;51.428;6.682;2023-04-24T07:38:51;1.23;;;1.13;;
11797;SDS011;5956;51.428;6.682;2023-04-24T07:41:19;1.00;;;1.00;;
11797;SDS011;5956;51.428;6.682;2023-04-24T07:43:45;1.20;;;1.20;;
11797;SDS011;5956;51.428;6.682;2023-04-24T07:46:12;1.90;;;1.80;;
11797;SDS011;5956;51.428;6.682;2023-04-24T07:48:38;1.40;;;1.30;;
11797;SDS011;5956;51.428;6.682;2023-04-24T07:51:05;1.10;;;1.10;;
11797;SDS011;5956;51.428;6.682;2023-04-24T07:53:31;1.33;;;1.20;;
11797;SDS011;5956;51.428;6.682;2023-04-24T07:55:58;1.27;;;1.17;;
11797;SDS011;5956;51.428;6.682;2023-04-24T07:58:26;2.03;;;1.17;;
11797;SDS011;5956;51.428;6.682;2023-04-24T08:00:52;1.20;;;1.20;;
11797;SDS011;5956;51.428;6.682;2023-04-24T08:03:19;1.13;;;1.10;;
11797;SDS011;5956;51.428;6.682;2023-04-24T08:05:45;1.10;;;1.10;;
11797;SDS011;5956;51.428;6.682;2023-04-24T08:08:12;1.20;;;1.20;;
11797;SDS011;5956;51.428;6.682;2023-04-24T08:10:38;1.43;;;1.33;;
11797;SDS011;5956;51.428;6.682;2023-04-24T08:13:05;1.20;;;1.10;;
11797;SDS011;5956;51.428;6.682;2023-04-24T08:15:33;1.23;;;1.10;;
11797;SDS011;5956;51.428;6.682;2023-04-24T08:17:59;2.50;;;1.30;;
11797;SDS011;5956;51.428;6.682;2023-04-24T08:20:26;1.43;;;1.30;;
11797;SDS011;5956;51.428;6.682;2023-04-24T08:22:52;1.83;;;1.20;;
11797;SDS011;5956;51.428;6.682;2023-04-24T08:25:19;1.23;;;1.13;;
11797;SDS011;5956;51.428;6.682;2023-04-24T08:27:48;1.20;;;1.20;;
11797;SDS011;5956;51.428;6.682;2023-04-24T08:30:14;1.10;;;1.00;;
11797;SDS011;5956;51.428;6.682;2023-04-24T08:32:42;1.10;;;1.10;;
11797;SDS011;5956;51.428;6.682;2023-04-24T08:35:09;1.23;;;1.13;;
11797;SDS011;5956;51.428;6.682;2023-04-24T08:37:35;0.90;;;0.90;;
11797;SDS011;5956;51.428;6.682;2023-04-24T08:40:02;1.10;;;1.00;;
11797;SDS011;5956;51.428;6.682;2023-04-24T08:42:32;2.00;;;0.77;;
11797;SDS011;5956;51.428;6.682;2023-04-24T08:45:00;2.50;;;1.00;;
11797;SDS011;5956;51.428;6.682;2023-04-24T08:47:27;1.17;;;0.73;;
11797;SDS011;5956;51.428;6.682;2023-04-24T08:49:56;0.90;;;0.90;;
11797;SDS011;5956;51.428;6.682;2023-04-24T08:52:25;1.63;;;0.93;;
11797;SDS011;5956;51.428;6.682;2023-04-24T08:54:53;2.43;;;2.20;;
11797;SDS011;5956;51.428;6.682;2023-04-24T08:57:20;3.13;;;2.87;;
11797;SDS011;5956;51.428;6.682;2023-04-24T08:59:46;4.77;;;3.80;;
11797;SDS011;5956;51.428;6.682;2023-04-24T09:02:13;4.93;;;4.63;;
11797;SDS011;5956;51.428;6.682;2023-04-24T09:04:40;6.40;;;5.80;;
11797;SDS011;5956;51.428;6.682;2023-04-24T09:07:08;7.00;;;6.13;;
11797;SDS011;5956;51.428;6.682;2023-04-24T09:09:35;6.77;;;6.17;;
11797;SDS011;5956;51.428;6.682;2023-04-24T09:12:02;6.63;;;5.90;;
11797;SDS011;5956;51.428;6.682;2023-04-24T09:14:29;6.07;;;5.53;;
11797;SDS011;5956;51.428;6.682;2023-04-24T09:16:57;5.93;;;5.43;;
11797;SDS011;5956;51.428;6.682;2023-04-24T09:19:23;5.90;;;5.40;;
11797;SDS011;5956;51.428;6.682;2023-04-24T09:21:50;5.50;;;5.10;;
11797;SDS011;5956;51.428;6.682;2023-04-24T09:24:21;6.20;;;5.60;;
11797;SDS011;5956;51.428;6.682;2023-04-24T09:26:48;5.37;;;4.97;;
11797;SDS011;5956;51.428;6.682;2023-04-24T09:29:16;5.83;;;5.27;;
11797;SDS011;5956;51.428;6.682;2023-04-24T09:31:43;5.57;;;5.07;;
11797;SDS011;5956;51.428;6.682;2023-04-24T09:34:09;6.47;;;5.87;;
11797;SDS011;5956;51.428;6.682;2023-04-24T09:36:36;5.90;;;5.33;;
11797;SDS011;5956;51.428;6.682;2023-04-24T09:39:03;6.10;;;5.50;;
11797;SDS011;5956;51.428;6.682;2023-04-24T09:41:32;6.00;;;5.50;;
11797;SDS011;5956;51.428;6.682;2023-04-24T09:44:01;5.70;;;5.20;;
11797;SDS011;5956;51.428;6.682;2023-04-24T09:46:36;6.53;;;5.20;;
11797;SDS011;5956;51.428;6.682;2023-04-24T09:49:07;7.23;;;6.17;;
11797;SDS011;5956;51.428;6.682;2023-04-24T09:51:35;9.03;;;6.47;;
11797;SDS011;5956;51.428;6.682;2023-04-24T09:54:02;6.73;;;6.00;;
11797;SDS011;5956;51.428;6.682;2023-04-24T09:56:33;6.40;;;5.77;;
11797;SDS011;5956;51.428;6.682;2023-04-24T09:59:06;8.13;;;5.70;;
11797;SDS011;5956;51.428;6.682;2023-04-24T10:01:32;7.53;;;6.23;;
11797;SDS011;5956;51.428;6.682;2023-04-24T10:03:59;8.73;;;5.23;;
11797;SDS011;5956;51.428;6.682;2023-04-24T10:06:29;7.13;;;4.80;;
11797;SDS011;5956;51.428;6.682;2023-04-24T10:08:56;8.67;;;5.73;;
11797;SDS011;5956;51.428;6.682;2023-04-24T10:11:23;6.73;;;4.73;;
11797;SDS011;5956;51.428;6.682;2023-04-24T10:13:51;10.03;;;4.13;;
11797;SDS011;5956;51.428;6.682;2023-04-24T10:16:18;8.33;;;4.63;;
11797;SDS011;5956;51.428;6.682;2023-04-24T10:18:45;8.17;;;4.83;;
11797;SDS011;5956;51.428;6.682;2023-04-24T10:21:12;6.90;;;4.53;;
11797;SDS011;5956;51.428;6.682;2023-04-24T10:23:38;8.03;;;5.13;;
11797;SDS011;5956;51.428;6.682;2023-04-24T10:26:05;9.27;;;5.00;;
11797;SDS011;5956;51.428;6.682;2023-04-24T10:28:32;6.13;;;4.40;;
11797;SDS011;5956;51.428;6.682;2023-04-24T10:31:01;14.50;;;7.40;;
11797;SDS011;5956;51.428;6.682;2023-04-24T10:33:28;10.13;;;5.40;;
11797;SDS011;5956;51.428;6.682;2023-04-24T10:35:55;7.43;;;4.60;;
11797;SDS011;5956;51.428;6.682;2023-04-24T10:38:24;10.20;;;4.40;;
11797;SDS011;5956;51.428;6.682;2023-04-24T10:40:51;7.80;;;4.33;;
11797;SDS011;5956;51.428;6.682;2023-04-24T10:43:23;9.47;;;4.97;;
11797;SDS011;5956;51.428;6.682;2023-04-24T10:48:33;13.57;;;4.63;;
11797;SDS011;5956;51.428;6.682;2023-04-24T10:50:59;9.07;;;4.33;;
11797;SDS011;5956;51.428;6.682;2023-04-24T10:53:28;6.90;;;4.17;;
11797;SDS011;5956;51.428;6.682;2023-04-24T10:55:57;8.87;;;4.60;;
11797;SDS011;5956;51.428;6.682;2023-04-24T10:58:24;10.33;;;5.43;;
11797;SDS011;5956;51.428;6.682;2023-04-24T11:00:59;9.03;;;5.33;;
11797;SDS011;5956;51.428;6.682;2023-04-24T11:03:28;10.00;;;5.10;;
11797;SDS011;5956;51.428;6.682;2023-04-24T11:05:57;10.93;;;6.33;;
11797;SDS011;5956;51.428;6.682;2023-04-24T11:08:25;9.27;;;6.10;;
11797;SDS011;5956;51.428;6.682;2023-04-24T11:10:59;7.63;;;4.53;;
11797;SDS011;5956;51.428;6.682;2023-04-24T11:13:27;10.03;;;5.30;;
11797;SDS011;5956;51.428;6.682;2023-04-24T11:16:13;9.47;;;4.10;;
11797;SDS011;5956;51.428;6.682;2023-04-24T11:18:40;6.33;;;3.57;;
11797;SDS011;5956;51.428;6.682;2023-04-24T11:21:12;7.47;;;3.60;;
11797;SDS011;5956;51.428;6.682;2023-04-24T11:23:38;6.10;;;3.53;;
11797;SDS011;5956;51.428;6.682;2023-04-24T11:26:12;8.77;;;3.33;;
11797;SDS011;5956;51.428;6.682;2023-04-24T11:28:44;8.50;;;3.40;;
11797;SDS011;5956;51.428;6.682;2023-04-24T11:33:55;6.70;;;3.20;;
11797;SDS011;5956;51.428;6.682;2023-04-24T11:36:23;10.07;;;3.83;;
11797;SDS011;5956;51.428;6.682;2023-04-24T11:38:50;8.03;;;4.63;;
11797;SDS011;5956;51.428;6.682;2023-04-24T11:41:16;6.23;;;4.17;;
11797;SDS011;5956;51.428;6.682;2023-04-24T11:43:45;9.80;;;3.27;;
11797;SDS011;5956;51.428;6.682;2023-04-24T11:46:12;7.33;;;3.03;;
11797;SDS011;5956;51.428;6.682;2023-04-24T11:48:38;6.20;;;3.97;;
11797;SDS011;5956;51.428;6.682;2023-04-24T11:51:06;6.33;;;3.97;;
11797;SDS011;5956;51.428;6.682;2023-04-24T11:53:33;5.87;;;3.43;;
11797;SDS011;5956;51.428;6.682;2023-04-24T11:56:02;8.90;;;3.57;;
11797;SDS011;5956;51.428;6.682;2023-04-24T11:58:34;7.27;;;4.17;;
11797;SDS011;5956;51.428;6.682;2023-04-24T12:01:01;7.80;;;4.63;;
11797;SDS011;5956;51.428;6.682;2023-04-24T12:03:27;8.97;;;3.80;;
11797;SDS011;5956;51.428;6.682;2023-04-24T12:06:04;7.77;;;3.70;;
11797;SDS011;5956;51.428;6.682;2023-04-24T12:08:31;3.07;;;2.77;;
11797;SDS011;5956;51.428;6.682;2023-04-24T12:10:59;6.63;;;3.50;;
11797;SDS011;5956;51.428;6.682;2023-04-24T12:13:26;6.20;;;3.97;;
11797;SDS011;5956;51.428;6.682;2023-04-24T12:15:52;7.47;;;2.90;;
11797;SDS011;5956;51.428;6.682;2023-04-24T12:18:19;4.37;;;2.40;;
11797;SDS011;5956;51.428;6.682;2023-04-24T12:20:48;5.07;;;2.30;;
11797;SDS011;5956;51.428;6.682;2023-04-24T12:23:14;14.17;;;10.70;;
11797;SDS011;5956;51.428;6.682;2023-04-24T12:25:41;4.17;;;2.50;;
11797;SDS011;5956;51.428;6.682;2023-04-24T12:28:12;6.10;;;5.00;;
11797;SDS011;5956;51.428;6.682;2023-04-24T12:30:40;4.40;;;2.87;;
11797;SDS011;5956;51.428;6.682;2023-04-24T12:33:06;5.77;;;3.77;;
11797;SDS011;5956;51.428;6.682;2023-04-24T12:35:33;3.63;;;2.10;;
11797;SDS011;5956;51.428;6.682;2023-04-24T12:38:10;4.63;;;2.03;;
11797;SDS011;5956;51.428;6.682;2023-04-24T12:40:37;3.53;;;1.90;;
11797;SDS011;5956;51.428;6.682;2023-04-24T12:43:13;1.93;;;1.80;;
11797;SDS011;5956;51.428;6.682;2023-04-24T12:45:40;3.70;;;1.70;;
11797;SDS011;5956;51.428;6.682;2023-04-24T12:48:07;3.70;;;2.13;;
11797;SDS011;5956;51.428;6.682;2023-04-24T12:50:33;3.53;;;1.83;;
11797;SDS011;5956;51.428;6.682;2023-04-24T12:53:00;1.40;;;1.30;;
11797;SDS011;5956;51.428;6.682;2023-04-24T12:55:26;4.63;;;1.70;;
11797;SDS011;5956;51.428;6.682;2023-04-24T12:57:53;1.47;;;1.30;;
11797;SDS011;5956;51.428;6.682;2023-04-24T13:00:21;2.73;;;1.47;;
11797;SDS011;5956;51.428;6.682;2023-04-24T13:02:48;6.63;;;1.40;;
11797;SDS011;5956;51.428;6.682;2023-04-24T13:05:14;3.33;;;1.47;;
11797;SDS011;5956;51.428;6.682;2023-04-24T13:07:41;4.90;;;1.73;;
11797;SDS011;5956;51.428;6.682;2023-04-24T13:10:08;2.53;;;1.43;;
11797;SDS011;5956;51.428;6.682;2023-04-24T13:12:34;3.77;;;1.80;;
11797;SDS011;5956;51.428;6.682;2023-04-24T13:15:01;4.87;;;1.77;;
11797;SDS011;5956;51.428;6.682;2023-04-24T13:17:29;3.57;;;1.37;;
11797;SDS011;5956;51.428;6.682;2023-04-24T13:19:56;1.73;;;1.47;;
11797;SDS011;5956;51.428;6.682;2023-04-24T13:22:22;3.67;;;1.37;;
11797;SDS011;5956;51.428;6.682;2023-04-24T13:24:50;3.03;;;1.60;;
11797;SDS011;5956;51.428;6.682;2023-04-24T13:27:16;3.83;;;1.50;;
11797;SDS011;5956;51.428;6.682;2023-04-24T13:29:43;4.17;;;1.87;;
11797;SDS011;5956;51.428;6.682;2023-04-24T13:32:10;2.23;;;1.60;;
11797;SDS011;5956;51.428;6.682;2023-04-24T13:34:38;3.97;;;1.83;;
11797;SDS011;5956;51.428;6.682;2023-04-24T13:37:04;2.63;;;1.40;;
11797;SDS011;5956;51.428;6.682;2023-04-24T13:39:31;4.03;;;1.50;;
11797;SDS011;5956;51.428;6.682;2023-04-24T13:41:57;3.80;;;1.80;;
11797;SDS011;5956;51.428;6.682;2023-04-24T13:44:24;4.70;;;1.63;;
11797;SDS011;5956;51.428;6.682;2023-04-24T13:46:52;4.47;;;1.70;;
11797;SDS011;5956;51.428;6.682;2023-04-24T13:49:19;2.77;;;1.83;;
11797;SDS011;5956;51.428;6.682;2023-04-24T13:51:47;2.43;;;1.40;;
11797;SDS011;5956;51.428;6.682;2023-04-24T13:54:14;1.73;;;1.50;;
11797;SDS011;5956;51.428;6.682;2023-04-24T13:56:41;2.30;;;1.40;;
11797;SDS011;5956;51.428;6.682;2023-04-24T13:59:07;2.73;;;1.53;;
11797;SDS011;5956;51.428;6.682;2023-04-24T14:01:34;2.13;;;1.53;;
11797;SDS011;5956;51.428;6.682;2023-04-24T14:04:01;2.37;;;1.30;;
11797;SDS011;5956;51.428;6.682;2023-04-24T14:06:27;1.97;;;1.27;;
11797;SDS011;5956;51.428;6.682;2023-04-24T14:08:55;1.93;;;1.40;;
11797;SDS011;5956;51.428;6.682;2023-04-24T14:11:21;1.80;;;1.50;;
11797;SDS011;5956;51.428;6.682;2023-04-24T14:13:48;2.70;;;1.43;;
11797;SDS011;5956;51.428;6.682;2023-04-24T14:16:15;2.63;;;1.40;;
11797;SDS011;5956;51.428;6.682;2023-04-24T14:18:41;2.47;;;1.37;;
11797;SDS011;5956;51.428;6.682;2023-04-24T14:21:08;1.67;;;1.40;;
11797;SDS011;5956;51.428;6.682;2023-04-24T14:23:34;2.47;;;1.40;;
11797;SDS011;5956;51.428;6.682;2023-04-24T14:26:02;1.80;;;1.20;;
11797;SDS011;5956;51.428;6.682;2023-04-24T14:28:29;1.47;;;1.30;;
11797;SDS011;5956;51.428;6.682;2023-04-24T14:30:55;2.17;;;1.20;;
11797;SDS011;5956;51.428;6.682;2023-04-24T14:33:22;1.80;;;1.20;;
11797;SDS011;5956;51.428;6.682;2023-04-24T14:35:48;1.47;;;1.33;;
11797;SDS011;5956;51.428;6.682;2023-04-24T14:38:15;3.47;;;1.30;;
11797;SDS011;5956;51.428;6.682;2023-04-24T14:40:41;2.57;;;1.30;;
11797;SDS011;5956;51.428;6.682;2023-04-24T14:43:09;1.67;;;1.13;;
11797;SDS011;5956;51.428;6.682;2023-04-24T14:45:36;1.63;;;1.40;;
11797;SDS011;5956;51.428;6.682;2023-04-24T14:48:02;5.00;;;3.87;;
11797;SDS011;5956;51.428;6.682;2023-04-24T14:50:29;3.93;;;2.00;;
11797;SDS011;5956;51.428;6.682;2023-04-24T14:52:56;3.53;;;1.70;;
11797;SDS011;5956;51.428;6.682;2023-04-24T14:55:23;2.00;;;1.53;;
11797;SDS011;5956;51.428;6.682;2023-04-24T14:57:49;1.90;;;1.60;;
11797;SDS011;5956;51.428;6.682;2023-04-24T15:00:18;2.00;;;1.60;;
11797;SDS011;5956;51.428;6.682;2023-04-24T15:02:45;3.97;;;1.70;;